00:38
Airports
History
Links
Donate
Help keep this website running!
PayPal
Bitcoin
Information on this page is community maintained and may be outdated or inaccurate and is intended for reference only or PC simulator navigating.
Always use approved charts for navigating.
ENNK
Narvik Framnes
Narvik Framnes (ENNK)
Narvik, Nordland, Norway (8516)
(U)
Lat/Lng:68° 26' 12.97" N / 17° 23' 12.02" E
68.436935 / 17.386673
Elevation:95'ft 29mMSL
ID / ICAO:ENNK
Runways:1
Longest:(01-19) 901.2m 2,957ft Asphalt
Distance To
Airport ID:
Nearby VORs <50NM
Nearby NDBs
METARUpdated 03-03-17 17:50 GMT
Altimeter: 29.83
Visibility: 6.2 statute miles
Wind: 6 knots (040°)
Temp: -1°c 30°f
Humidity: 50.3%

METAR: ENNK 311750Z 04006KT 9999 FEW060 SCT200 M01/M10 Q1010

(Powered by phpweather)
Runway 01 / 19
Dimensions:901.2 x 29.9m 2957' x 98'ft
Surface:Asphalt
Edge Lights:Medium intensity
Runway 01 [A]Runway 19 [B]
Heading:022°TH 202°TH
Lat:
Lng:
68° 25' 59.41"N
17° 22' 56.41"E
68° 26' 26.53"N
17° 23' 27.63"E
ALS:MALSMALS
User Notes and Comments
Google Map
Nearby Airports
(C) EVENES 18.4 NM
ENEV W 281°
(C) Bardufoss 51.6 NM
ENDU (WX) NE 34°
(C) Stokmarknes Skagen 60.7 NM
ENSK W 279°
(C) ANDOYA 67.0 NM
ENAN NNW 332°
4 Engeloy 69.5 NM
ENEN WSW 242°
(U) Svolvaer Helle 70.6 NM
ENSH (WX) W 259°
(C) Kiruna 87.0 NM
ESNQ ESE 119°
VFR Chart
Flight Planning at SkyVector.com